sensor_id;sensor_type;location;lat;lon;timestamp;temperature;humidity
36374;DHT22;22399;51.346;12.372;2023-05-07T00:00:06;9.50;99.90
36374;DHT22;22399;51.346;12.372;2023-05-07T00:02:35;9.50;99.90
36374;DHT22;22399;51.346;12.372;2023-05-07T00:05:04;9.40;99.90
36374;DHT22;22399;51.346;12.372;2023-05-07T00:07:33;9.40;99.90
36374;DHT22;22399;51.346;12.372;2023-05-07T00:10:03;9.40;99.90
36374;DHT22;22399;51.346;12.372;2023-05-07T00:12:31;9.40;99.90
36374;DHT22;22399;51.346;12.372;2023-05-07T00:15:01;9.40;99.90
36374;DHT22;22399;51.346;12.372;2023-05-07T00:17:29;9.40;99.90
36374;DHT22;22399;51.346;12.372;2023-05-07T00:19:58;9.50;99.90
36374;DHT22;22399;51.346;12.372;2023-05-07T00:22:26;9.40;99.90
36374;DHT22;22399;51.346;12.372;2023-05-07T00:24:54;9.50;99.90
36374;DHT22;22399;51.346;12.372;2023-05-07T00:27:24;9.50;99.90
36374;DHT22;22399;51.346;12.372;2023-05-07T00:29:52;9.50;99.90
36374;DHT22;22399;51.346;12.372;2023-05-07T00:32:20;9.50;99.90
36374;DHT22;22399;51.346;12.372;2023-05-07T00:34:49;9.50;99.90
36374;DHT22;22399;51.346;12.372;2023-05-07T00:37:18;9.50;99.90
36374;DHT22;22399;51.346;12.372;2023-05-07T00:39:46;9.40;99.90
36374;DHT22;22399;51.346;12.372;2023-05-07T00:42:14;9.50;99.90
36374;DHT22;22399;51.346;12.372;2023-05-07T00:44:44;9.50;99.90
36374;DHT22;22399;51.346;12.372;2023-05-07T00:47:13;9.40;99.90
36374;DHT22;22399;51.346;12.372;2023-05-07T00:49:42;9.40;99.90
36374;DHT22;22399;51.346;12.372;2023-05-07T00:52:11;9.40;99.90
36374;DHT22;22399;51.346;12.372;2023-05-07T00:54:41;9.50;99.90
36374;DHT22;22399;51.346;12.372;2023-05-07T00:57:10;9.50;99.90
36374;DHT22;22399;51.346;12.372;2023-05-07T00:59:38;9.50;99.90
36374;DHT22;22399;51.346;12.372;2023-05-07T01:02:09;9.50;99.90
36374;DHT22;22399;51.346;12.372;2023-05-07T01:04:38;9.50;99.90
36374;DHT22;22399;51.346;12.372;2023-05-07T01:07:07;9.60;99.90
36374;DHT22;22399;51.346;12.372;2023-05-07T01:09:36;9.60;99.90
36374;DHT22;22399;51.346;12.372;2023-05-07T01:12:05;9.60;99.90
36374;DHT22;22399;51.346;12.372;2023-05-07T01:14:34;9.50;99.90
36374;DHT22;22399;51.346;12.372;2023-05-07T01:17:03;9.60;99.90
36374;DHT22;22399;51.346;12.372;2023-05-07T01:19:32;9.60;99.90
36374;DHT22;22399;51.346;12.372;2023-05-07T01:22:01;9.50;99.90
36374;DHT22;22399;51.346;12.372;2023-05-07T01:24:37;9.50;99.90
36374;DHT22;22399;51.346;12.372;2023-05-07T01:27:07;9.50;99.90
36374;DHT22;22399;51.346;12.372;2023-05-07T01:29:36;9.50;99.90
36374;DHT22;22399;51.346;12.372;2023-05-07T01:32:04;9.40;99.90
36374;DHT22;22399;51.346;12.372;2023-05-07T01:34:33;9.40;99.90
36374;DHT22;22399;51.346;12.372;2023-05-07T01:37:02;9.40;99.90
36374;DHT22;22399;51.346;12.372;2023-05-07T01:39:31;9.50;99.90
36374;DHT22;22399;51.346;12.372;2023-05-07T01:42:01;9.60;99.90
36374;DHT22;22399;51.346;12.372;2023-05-07T01:44:29;9.60;99.90
36374;DHT22;22399;51.346;12.372;2023-05-07T01:46:57;9.60;99.90
36374;DHT22;22399;51.346;12.372;2023-05-07T01:49:26;9.60;99.90
36374;DHT22;22399;51.346;12.372;2023-05-07T01:51:55;9.50;99.90
36374;DHT22;22399;51.346;12.372;2023-05-07T01:54:25;9.50;99.90
36374;DHT22;22399;51.346;12.372;2023-05-07T01:56:56;9.40;99.90
36374;DHT22;22399;51.346;12.372;2023-05-07T01:59:25;9.40;99.90
36374;DHT22;22399;51.346;12.372;2023-05-07T02:01:54;9.40;99.90
36374;DHT22;22399;51.346;12.372;2023-05-07T02:04:23;9.40;99.90
36374;DHT22;22399;51.346;12.372;2023-05-07T02:06:52;9.40;99.90
36374;DHT22;22399;51.346;12.372;2023-05-07T02:09:21;9.40;99.90
36374;DHT22;22399;51.346;12.372;2023-05-07T02:11:50;9.50;99.90
36374;DHT22;22399;51.346;12.372;2023-05-07T02:14:20;9.50;99.90
36374;DHT22;22399;51.346;12.372;2023-05-07T02:16:50;9.50;99.90
36374;DHT22;22399;51.346;12.372;2023-05-07T02:19:18;9.50;99.90
36374;DHT22;22399;51.346;12.372;2023-05-07T02:21:48;9.40;99.90
36374;DHT22;22399;51.346;12.372;2023-05-07T02:24:17;9.40;99.90
36374;DHT22;22399;51.346;12.372;2023-05-07T02:26:45;9.30;99.90
36374;DHT22;22399;51.346;12.372;2023-05-07T02:29:13;9.30;99.90
36374;DHT22;22399;51.346;12.372;2023-05-07T02:31:42;9.20;99.90
36374;DHT22;22399;51.346;12.372;2023-05-07T02:34:12;9.30;99.90
36374;DHT22;22399;51.346;12.372;2023-05-07T02:36:40;9.30;99.90
36374;DHT22;22399;51.346;12.372;2023-05-07T02:39:11;9.30;99.90
36374;DHT22;22399;51.346;12.372;2023-05-07T02:41:40;9.30;99.90
36374;DHT22;22399;51.346;12.372;2023-05-07T02:44:08;9.30;99.90
36374;DHT22;22399;51.346;12.372;2023-05-07T02:46:37;9.30;99.90
36374;DHT22;22399;51.346;12.372;2023-05-07T02:49:09;9.30;99.90
36374;DHT22;22399;51.346;12.372;2023-05-07T02:51:39;9.20;99.90
36374;DHT22;22399;51.346;12.372;2023-05-07T02:54:12;9.20;99.90
36374;DHT22;22399;51.346;12.372;2023-05-07T02:56:40;9.20;99.90
36374;DHT22;22399;51.346;12.372;2023-05-07T02:59:08;9.20;99.90
36374;DHT22;22399;51.346;12.372;2023-05-07T03:01:40;9.20;99.90
36374;DHT22;22399;51.346;12.372;2023-05-07T03:04:12;9.20;99.90
36374;DHT22;22399;51.346;12.372;2023-05-07T03:06:41;9.20;99.90
36374;DHT22;22399;51.346;12.372;2023-05-07T03:09:10;9.30;99.90
36374;DHT22;22399;51.346;12.372;2023-05-07T03:11:38;9.20;99.90
36374;DHT22;22399;51.346;12.372;2023-05-07T03:14:06;9.30;99.90
36374;DHT22;22399;51.346;12.372;2023-05-07T03:16:35;9.30;99.90
36374;DHT22;22399;51.346;12.372;2023-05-07T03:19:03;9.30;99.90
36374;DHT22;22399;51.346;12.372;2023-05-07T03:21:32;9.30;99.90
36374;DHT22;22399;51.346;12.372;2023-05-07T03:24:02;9.30;99.90
36374;DHT22;22399;51.346;12.372;2023-05-07T03:26:31;9.20;99.90
36374;DHT22;22399;51.346;12.372;2023-05-07T03:28:59;9.20;99.90
36374;DHT22;22399;51.346;12.372;2023-05-07T03:31:28;9.30;99.90
36374;DHT22;22399;51.346;12.372;2023-05-07T03:33:57;9.30;99.90
36374;DHT22;22399;51.346;12.372;2023-05-07T03:36:26;9.30;99.90
36374;DHT22;22399;51.346;12.372;2023-05-07T03:38:55;9.30;99.90
36374;DHT22;22399;51.346;12.372;2023-05-07T03:41:28;9.30;99.90
36374;DHT22;22399;51.346;12.372;2023-05-07T03:43:56;9.30;99.90
36374;DHT22;22399;51.346;12.372;2023-05-07T03:46:24;9.30;99.90
36374;DHT22;22399;51.346;12.372;2023-05-07T03:48:54;9.30;99.90
36374;DHT22;22399;51.346;12.372;2023-05-07T03:51:22;9.40;99.90
36374;DHT22;22399;51.346;12.372;2023-05-07T03:53:50;9.40;99.90
36374;DHT22;22399;51.346;12.372;2023-05-07T03:56:20;9.40;99.90
36374;DHT22;22399;51.346;12.372;2023-05-07T03:58:54;9.40;99.90
36374;DHT22;22399;51.346;12.372;2023-05-07T04:01:22;9.50;99.90
36374;DHT22;22399;51.346;12.372;2023-05-07T04:03:51;9.50;99.90
36374;DHT22;22399;51.346;12.372;2023-05-07T04:06:19;9.50;99.90
36374;DHT22;22399;51.346;12.372;2023-05-07T04:08:48;9.50;99.90
36374;DHT22;22399;51.346;12.372;2023-05-07T04:11:17;9.60;99.90
36374;DHT22;22399;51.346;12.372;2023-05-07T04:13:45;9.60;99.90
36374;DHT22;22399;51.346;12.372;2023-05-07T04:16:19;9.60;99.90
36374;DHT22;22399;51.346;12.372;2023-05-07T04:18:48;9.60;99.90
36374;DHT22;22399;51.346;12.372;2023-05-07T04:21:17;9.50;99.90
36374;DHT22;22399;51.346;12.372;2023-05-07T04:23:46;9.40;99.90
36374;DHT22;22399;51.346;12.372;2023-05-07T04:26:15;9.40;99.90
36374;DHT22;22399;51.346;12.372;2023-05-07T04:28:44;9.40;99.90
36374;DHT22;22399;51.346;12.372;2023-05-07T04:31:14;9.40;99.90
36374;DHT22;22399;51.346;12.372;2023-05-07T04:33:46;9.50;99.90
36374;DHT22;22399;51.346;12.372;2023-05-07T04:36:15;9.50;99.90
36374;DHT22;22399;51.346;12.372;2023-05-07T04:38:48;9.50;99.90
36374;DHT22;22399;51.346;12.372;2023-05-07T04:41:19;9.60;99.90
36374;DHT22;22399;51.346;12.372;2023-05-07T04:43:48;9.60;99.90
36374;DHT22;22399;51.346;12.372;2023-05-07T04:46:18;9.70;99.90
36374;DHT22;22399;51.346;12.372;2023-05-07T04:48:49;9.70;99.90
36374;DHT22;22399;51.346;12.372;2023-05-07T04:51:17;9.70;99.90
36374;DHT22;22399;51.346;12.372;2023-05-07T04:53:46;9.70;99.90
36374;DHT22;22399;51.346;12.372;2023-05-07T04:56:14;9.80;99.90
36374;DHT22;22399;51.346;12.372;2023-05-07T04:58:44;9.70;99.90
36374;DHT22;22399;51.346;12.372;2023-05-07T05:01:15;9.70;99.90
36374;DHT22;22399;51.346;12.372;2023-05-07T05:03:43;9.70;99.90
36374;DHT22;22399;51.346;12.372;2023-05-07T05:06:13;9.60;99.90
36374;DHT22;22399;51.346;12.372;2023-05-07T05:08:42;9.60;99.90
36374;DHT22;22399;51.346;12.372;2023-05-07T05:11:10;9.50;99.90
36374;DHT22;22399;51.346;12.372;2023-05-07T05:13:38;9.60;99.90
36374;DHT22;22399;51.346;12.372;2023-05-07T05:16:12;9.60;99.90
36374;DHT22;22399;51.346;12.372;2023-05-07T05:18:40;9.70;99.90
36374;DHT22;22399;51.346;12.372;2023-05-07T05:21:11;9.60;99.90
36374;DHT22;22399;51.346;12.372;2023-05-07T05:23:42;9.60;99.90
36374;DHT22;22399;51.346;12.372;2023-05-07T05:26:12;9.60;99.90
36374;DHT22;22399;51.346;12.372;2023-05-07T05:28:40;9.60;99.90
36374;DHT22;22399;51.346;12.372;2023-05-07T05:31:09;9.60;99.90
36374;DHT22;22399;51.346;12.372;2023-05-07T05:33:37;9.60;99.90
36374;DHT22;22399;51.346;12.372;2023-05-07T05:36:07;9.60;99.90
36374;DHT22;22399;51.346;12.372;2023-05-07T05:38:37;9.60;99.90
36374;DHT22;22399;51.346;12.372;2023-05-07T05:41:08;9.60;99.90
36374;DHT22;22399;51.346;12.372;2023-05-07T05:43:37;9.70;99.90
36374;DHT22;22399;51.346;12.372;2023-05-07T05:46:05;9.70;99.90
36374;DHT22;22399;51.346;12.372;2023-05-07T05:48:35;9.80;99.90
36374;DHT22;22399;51.346;12.372;2023-05-07T05:51:05;9.80;99.90
36374;DHT22;22399;51.346;12.372;2023-05-07T05:53:33;9.90;99.90
36374;DHT22;22399;51.346;12.372;2023-05-07T05:56:02;9.90;99.90
36374;DHT22;22399;51.346;12.372;2023-05-07T05:58:32;10.00;99.90
36374;DHT22;22399;51.346;12.372;2023-05-07T06:01:04;10.00;99.90
36374;DHT22;22399;51.346;12.372;2023-05-07T06:03:35;10.00;99.90
36374;DHT22;22399;51.346;12.372;2023-05-07T06:06:08;10.00;99.90
36374;DHT22;22399;51.346;12.372;2023-05-07T06:08:36;10.00;99.90
36374;DHT22;22399;51.346;12.372;2023-05-07T06:11:05;10.00;99.90
36374;DHT22;22399;51.346;12.372;2023-05-07T06:13:37;10.00;99.90
36374;DHT22;22399;51.346;12.372;2023-05-07T06:16:06;10.00;99.90
36374;DHT22;22399;51.346;12.372;2023-05-07T06:18:34;10.00;99.90
36374;DHT22;22399;51.346;12.372;2023-05-07T06:21:03;10.10;99.90
36374;DHT22;22399;51.346;12.372;2023-05-07T06:23:33;10.10;99.90
36374;DHT22;22399;51.346;12.372;2023-05-07T06:26:03;10.10;99.90
36374;DHT22;22399;51.346;12.372;2023-05-07T06:28:38;10.20;99.90
36374;DHT22;22399;51.346;12.372;2023-05-07T06:31:10;10.30;99.90
36374;DHT22;22399;51.346;12.372;2023-05-07T06:33:40;10.40;99.90
36374;DHT22;22399;51.346;12.372;2023-05-07T06:36:08;10.60;99.90
36374;DHT22;22399;51.346;12.372;2023-05-07T06:38:38;10.70;99.90
36374;DHT22;22399;51.346;12.372;2023-05-07T06:41:06;10.60;99.90
36374;DHT22;22399;51.346;12.372;2023-05-07T06:43:39;10.60;99.90
36374;DHT22;22399;51.346;12.372;2023-05-07T06:46:23;10.60;99.90
36374;DHT22;22399;51.346;12.372;2023-05-07T06:48:52;10.50;99.90
36374;DHT22;22399;51.346;12.372;2023-05-07T06:51:20;10.70;99.90
36374;DHT22;22399;51.346;12.372;2023-05-07T06:53:48;10.60;99.90
36374;DHT22;22399;51.346;12.372;2023-05-07T06:56:17;10.60;99.90
36374;DHT22;22399;51.346;12.372;2023-05-07T06:58:46;10.70;99.90
36374;DHT22;22399;51.346;12.372;2023-05-07T07:01:15;10.60;99.90
36374;DHT22;22399;51.346;12.372;2023-05-07T07:03:44;10.60;99.90
36374;DHT22;22399;51.346;12.372;2023-05-07T07:06:12;10.50;99.90
36374;DHT22;22399;51.346;12.372;2023-05-07T07:08:41;10.50;99.90
36374;DHT22;22399;51.346;12.372;2023-05-07T07:11:13;10.50;99.90
36374;DHT22;22399;51.346;12.372;2023-05-07T07:13:41;10.60;99.90
36374;DHT22;22399;51.346;12.372;2023-05-07T07:16:11;10.70;99.90
36374;DHT22;22399;51.346;12.372;2023-05-07T07:18:40;10.60;99.90
36374;DHT22;22399;51.346;12.372;2023-05-07T07:21:08;10.60;99.90
36374;DHT22;22399;51.346;12.372;2023-05-07T07:23:36;10.50;99.90
36374;DHT22;22399;51.346;12.372;2023-05-07T07:26:05;10.50;99.90
36374;DHT22;22399;51.346;12.372;2023-05-07T07:28:33;10.60;99.90
36374;DHT22;22399;51.346;12.372;2023-05-07T07:31:03;10.80;99.90
36374;DHT22;22399;51.346;12.372;2023-05-07T07:33:33;10.90;99.90
36374;DHT22;22399;51.346;12.372;2023-05-07T07:36:01;11.20;99.90
36374;DHT22;22399;51.346;12.372;2023-05-07T07:38:29;11.30;99.90
36374;DHT22;22399;51.346;12.372;2023-05-07T07:40:58;11.30;99.90
36374;DHT22;22399;51.346;12.372;2023-05-07T07:43:27;11.30;99.90
36374;DHT22;22399;51.346;12.372;2023-05-07T07:45:56;11.30;99.90
36374;DHT22;22399;51.346;12.372;2023-05-07T07:48:25;11.30;99.90
36374;DHT22;22399;51.346;12.372;2023-05-07T07:50:55;11.30;99.90
36374;DHT22;22399;51.346;12.372;2023-05-07T07:53:23;11.30;99.90
36374;DHT22;22399;51.346;12.372;2023-05-07T07:55:51;11.30;99.90
36374;DHT22;22399;51.346;12.372;2023-05-07T07:58:28;11.20;99.90
36374;DHT22;22399;51.346;12.372;2023-05-07T08:00:57;11.30;99.90
36374;DHT22;22399;51.346;12.372;2023-05-07T08:03:25;11.30;99.90
36374;DHT22;22399;51.346;12.372;2023-05-07T08:05:59;11.30;99.90
36374;DHT22;22399;51.346;12.372;2023-05-07T08:08:27;11.30;99.90
36374;DHT22;22399;51.346;12.372;2023-05-07T08:10:56;11.30;99.90
36374;DHT22;22399;51.346;12.372;2023-05-07T08:13:29;11.30;99.90
36374;DHT22;22399;51.346;12.372;2023-05-07T08:15:58;11.40;99.90
36374;DHT22;22399;51.346;12.372;2023-05-07T08:18:26;11.40;99.90
36374;DHT22;22399;51.346;12.372;2023-05-07T08:20:58;11.30;99.90
36374;DHT22;22399;51.346;12.372;2023-05-07T08:23:27;11.30;99.90
36374;DHT22;22399;51.346;12.372;2023-05-07T08:25:55;11.50;99.90
36374;DHT22;22399;51.346;12.372;2023-05-07T08:28:25;11.60;99.90
36374;DHT22;22399;51.346;12.372;2023-05-07T08:30:53;11.60;99.90
36374;DHT22;22399;51.346;12.372;2023-05-07T08:33:23;11.50;99.90
36374;DHT22;22399;51.346;12.372;2023-05-07T08:35:52;11.40;99.90
36374;DHT22;22399;51.346;12.372;2023-05-07T08:38:22;11.30;99.90
36374;DHT22;22399;51.346;12.372;2023-05-07T08:40:50;11.30;99.90
36374;DHT22;22399;51.346;12.372;2023-05-07T08:43:19;11.30;99.90
36374;DHT22;22399;51.346;12.372;2023-05-07T08:45:49;11.30;99.90
36374;DHT22;22399;51.346;12.372;2023-05-07T08:48:25;11.40;99.90
36374;DHT22;22399;51.346;12.372;2023-05-07T08:51:02;11.30;99.90
36374;DHT22;22399;51.346;12.372;2023-05-07T08:53:32;11.30;99.90
36374;DHT22;22399;51.346;12.372;2023-05-07T08:56:01;11.30;99.90
36374;DHT22;22399;51.346;12.372;2023-05-07T08:58:30;11.20;99.90
36374;DHT22;22399;51.346;12.372;2023-05-07T09:00:58;11.20;99.90
36374;DHT22;22399;51.346;12.372;2023-05-07T09:03:28;11.20;99.90
36374;DHT22;22399;51.346;12.372;2023-05-07T09:05:58;11.10;99.90
36374;DHT22;22399;51.346;12.372;2023-05-07T09:08:27;11.20;99.90
36374;DHT22;22399;51.346;12.372;2023-05-07T09:11:01;11.30;99.90
36374;DHT22;22399;51.346;12.372;2023-05-07T09:13:29;11.30;99.90
36374;DHT22;22399;51.346;12.372;2023-05-07T09:16:09;11.30;99.90
36374;DHT22;22399;51.346;12.372;2023-05-07T09:18:42;11.40;99.90
36374;DHT22;22399;51.346;12.372;2023-05-07T09:21:14;11.50;99.90
36374;DHT22;22399;51.346;12.372;2023-05-07T09:23:44;11.70;99.90
36374;DHT22;22399;51.346;12.372;2023-05-07T09:26:15;11.70;99.90
36374;DHT22;22399;51.346;12.372;2023-05-07T09:28:43;11.80;99.90
36374;DHT22;22399;51.346;12.372;2023-05-07T09:31:14;11.70;99.90
36374;DHT22;22399;51.346;12.372;2023-05-07T09:33:46;11.70;99.90
36374;DHT22;22399;51.346;12.372;2023-05-07T09:36:15;11.60;99.90
36374;DHT22;22399;51.346;12.372;2023-05-07T09:38:44;11.50;99.90
36374;DHT22;22399;51.346;12.372;2023-05-07T09:41:14;11.40;99.90
36374;DHT22;22399;51.346;12.372;2023-05-07T09:43:53;11.40;99.90
36374;DHT22;22399;51.346;12.372;2023-05-07T09:46:27;11.50;99.90
36374;DHT22;22399;51.346;12.372;2023-05-07T09:49:01;11.60;99.90
36374;DHT22;22399;51.346;12.372;2023-05-07T09:51:33;11.70;99.90
36374;DHT22;22399;51.346;12.372;2023-05-07T09:54:05;11.80;99.90
36374;DHT22;22399;51.346;12.372;2023-05-07T09:56:38;11.80;99.90
36374;DHT22;22399;51.346;12.372;2023-05-07T09:59:10;11.70;99.90
36374;DHT22;22399;51.346;12.372;2023-05-07T10:01:39;11.70;99.90
36374;DHT22;22399;51.346;12.372;2023-05-07T10:04:09;11.70;99.90
36374;DHT22;22399;51.346;12.372;2023-05-07T10:06:39;11.80;99.90
36374;DHT22;22399;51.346;12.372;2023-05-07T10:09:09;11.90;99.90
36374;DHT22;22399;51.346;12.372;2023-05-07T10:11:40;12.00;99.90
36374;DHT22;22399;51.346;12.372;2023-05-07T10:14:09;12.10;99.90
36374;DHT22;22399;51.346;12.372;2023-05-07T10:16:40;12.10;99.90
36374;DHT22;22399;51.346;12.372;2023-05-07T10:19:13;12.20;99.90
36374;DHT22;22399;51.346;12.372;2023-05-07T10:21:48;12.30;99.90
36374;DHT22;22399;51.346;12.372;2023-05-07T10:24:19;12.40;99.90
36374;DHT22;22399;51.346;12.372;2023-05-07T10:26:50;12.30;99.90
36374;DHT22;22399;51.346;12.372;2023-05-07T10:29:21;12.30;99.90
36374;DHT22;22399;51.346;12.372;2023-05-07T10:31:55;12.50;99.90
36374;DHT22;22399;51.346;12.372;2023-05-07T10:34:28;12.50;99.90
36374;DHT22;22399;51.346;12.372;2023-05-07T10:36:57;12.30;99.90
36374;DHT22;22399;51.346;12.372;2023-05-07T10:39:26;12.30;99.90
36374;DHT22;22399;51.346;12.372;2023-05-07T10:41:56;12.50;99.90
36374;DHT22;22399;51.346;12.372;2023-05-07T10:44:25;12.70;99.90
36374;DHT22;22399;51.346;12.372;2023-05-07T10:52:35;12.40;99.90
36374;DHT22;22399;51.346;12.372;2023-05-07T10:55:20;12.40;99.90
36374;DHT22;22399;51.346;12.372;2023-05-07T10:58:25;12.20;99.90
36374;DHT22;22399;51.346;12.372;2023-05-07T11:01:11;12.10;99.90
36374;DHT22;22399;51.346;12.372;2023-05-07T11:06:24;12.50;99.90
36374;DHT22;22399;51.346;12.372;2023-05-07T11:09:00;12.60;99.90
36374;DHT22;22399;51.346;12.372;2023-05-07T11:11:51;12.60;99.90
36374;DHT22;22399;51.346;12.372;2023-05-07T11:14:44;12.70;99.90
36374;DHT22;22399;51.346;12.372;2023-05-07T11:17:20;12.70;99.90
36374;DHT22;22399;51.346;12.372;2023-05-07T11:19:56;12.80;99.90
36374;DHT22;22399;51.346;12.372;2023-05-07T11:22:40;12.70;99.90
36374;DHT22;22399;51.346;12.372;2023-05-07T11:25:17;12.90;99.90
36374;DHT22;22399;51.346;12.372;2023-05-07T11:27:48;12.90;99.90
36374;DHT22;22399;51.346;12.372;2023-05-07T11:30:19;13.00;99.90
36374;DHT22;22399;51.346;12.372;2023-05-07T11:32:47;13.10;99.90
36374;DHT22;22399;51.346;12.372;2023-05-07T11:35:17;13.10;99.90
36374;DHT22;22399;51.346;12.372;2023-05-07T11:37:47;13.00;99.90
36374;DHT22;22399;51.346;12.372;2023-05-07T11:40:16;13.00;99.90
36374;DHT22;22399;51.346;12.372;2023-05-07T11:42:44;13.20;99.90
36374;DHT22;22399;51.346;12.372;2023-05-07T11:45:12;13.30;99.90
36374;DHT22;22399;51.346;12.372;2023-05-07T11:47:52;13.50;99.90
36374;DHT22;22399;51.346;12.372;2023-05-07T11:50:20;13.40;99.90
36374;DHT22;22399;51.346;12.372;2023-05-07T11:52:50;13.20;99.90
36374;DHT22;22399;51.346;12.372;2023-05-07T11:55:19;12.90;99.90
36374;DHT22;22399;51.346;12.372;2023-05-07T11:57:48;12.70;99.90
36374;DHT22;22399;51.346;12.372;2023-05-07T12:00:17;12.60;99.90
36374;DHT22;22399;51.346;12.372;2023-05-07T12:02:45;12.80;99.90
36374;DHT22;22399;51.346;12.372;2023-05-07T12:05:15;12.90;99.90
36374;DHT22;22399;51.346;12.372;2023-05-07T12:07:43;13.00;99.90
36374;DHT22;22399;51.346;12.372;2023-05-07T12:10:12;13.10;99.90
36374;DHT22;22399;51.346;12.372;2023-05-07T12:12:41;13.30;99.90
36374;DHT22;22399;51.346;12.372;2023-05-07T12:15:09;13.20;99.90
36374;DHT22;22399;51.346;12.372;2023-05-07T12:17:38;13.10;99.90
36374;DHT22;22399;51.346;12.372;2023-05-07T12:20:07;13.10;99.90
36374;DHT22;22399;51.346;12.372;2023-05-07T12:22:37;13.30;99.90
36374;DHT22;22399;51.346;12.372;2023-05-07T12:25:06;13.50;99.90
36374;DHT22;22399;51.346;12.372;2023-05-07T12:27:36;13.60;99.90
36374;DHT22;22399;51.346;12.372;2023-05-07T12:30:05;13.60;99.90
36374;DHT22;22399;51.346;12.372;2023-05-07T12:32:34;13.80;99.90
36374;DHT22;22399;51.346;12.372;2023-05-07T12:35:05;13.90;99.90
36374;DHT22;22399;51.346;12.372;2023-05-07T12:37:34;13.90;99.90
36374;DHT22;22399;51.346;12.372;2023-05-07T12:40:05;13.90;99.90
36374;DHT22;22399;51.346;12.372;2023-05-07T12:42:35;13.90;99.90
36374;DHT22;22399;51.346;12.372;2023-05-07T12:45:10;13.70;99.90
36374;DHT22;22399;51.346;12.372;2023-05-07T12:47:39;13.50;99.90
36374;DHT22;22399;51.346;12.372;2023-05-07T12:50:11;13.70;99.90
36374;DHT22;22399;51.346;12.372;2023-05-07T12:52:40;13.90;99.90
36374;DHT22;22399;51.346;12.372;2023-05-07T12:55:12;14.20;99.90
36374;DHT22;22399;51.346;12.372;2023-05-07T12:57:42;14.50;99.90
36374;DHT22;22399;51.346;12.372;2023-05-07T13:00:10;14.70;99.90
36374;DHT22;22399;51.346;12.372;2023-05-07T13:02:40;14.50;99.40
36374;DHT22;22399;51.346;12.372;2023-05-07T13:05:11;14.60;99.40
36374;DHT22;22399;51.346;12.372;2023-05-07T13:07:40;14.60;98.50
36374;DHT22;22399;51.346;12.372;2023-05-07T13:10:10;14.60;98.00
36374;DHT22;22399;51.346;12.372;2023-05-07T13:12:38;14.50;98.20
36374;DHT22;22399;51.346;12.372;2023-05-07T13:15:06;14.50;98.70
36374;DHT22;22399;51.346;12.372;2023-05-07T13:17:35;14.50;98.10
36374;DHT22;22399;51.346;12.372;2023-05-07T13:20:03;14.60;97.70
36374;DHT22;22399;51.346;12.372;2023-05-07T13:22:32;14.90;97.10
36374;DHT22;22399;51.346;12.372;2023-05-07T13:25:00;14.80;97.00
36374;DHT22;22399;51.346;12.372;2023-05-07T13:27:30;14.40;97.50
36374;DHT22;22399;51.346;12.372;2023-05-07T13:29:58;14.50;97.80
36374;DHT22;22399;51.346;12.372;2023-05-07T13:32:26;14.60;97.80
36374;DHT22;22399;51.346;12.372;2023-05-07T13:34:54;14.70;97.10
36374;DHT22;22399;51.346;12.372;2023-05-07T13:37:23;14.50;97.60
36374;DHT22;22399;51.346;12.372;2023-05-07T13:39:51;14.60;97.50
36374;DHT22;22399;51.346;12.372;2023-05-07T13:42:19;14.70;97.10
36374;DHT22;22399;51.346;12.372;2023-05-07T13:44:49;14.70;96.50
36374;DHT22;22399;51.346;12.372;2023-05-07T13:47:17;14.80;96.30
36374;DHT22;22399;51.346;12.372;2023-05-07T13:49:47;14.50;96.40
36374;DHT22;22399;51.346;12.372;2023-05-07T13:52:17;14.40;96.50
36374;DHT22;22399;51.346;12.372;2023-05-07T13:54:46;14.40;96.40
36374;DHT22;22399;51.346;12.372;2023-05-07T13:57:14;14.40;96.70
36374;DHT22;22399;51.346;12.372;2023-05-07T13:59:42;14.40;96.90
36374;DHT22;22399;51.346;12.372;2023-05-07T14:02:12;14.40;96.70
36374;DHT22;22399;51.346;12.372;2023-05-07T14:04:40;14.40;96.50
36374;DHT22;22399;51.346;12.372;2023-05-07T14:07:08;14.40;96.60
36374;DHT22;22399;51.346;12.372;2023-05-07T14:09:37;14.40;96.50
36374;DHT22;22399;51.346;12.372;2023-05-07T14:12:05;14.40;95.90
36374;DHT22;22399;51.346;12.372;2023-05-07T14:14:34;14.30;96.00
36374;DHT22;22399;51.346;12.372;2023-05-07T14:17:02;14.40;95.70
36374;DHT22;22399;51.346;12.372;2023-05-07T14:19:32;14.50;95.20
36374;DHT22;22399;51.346;12.372;2023-05-07T14:22:00;14.50;95.00
36374;DHT22;22399;51.346;12.372;2023-05-07T14:24:29;14.50;94.80
36374;DHT22;22399;51.346;12.372;2023-05-07T14:27:04;14.50;94.80
36374;DHT22;22399;51.346;12.372;2023-05-07T14:29:33;14.50;95.00
36374;DHT22;22399;51.346;12.372;2023-05-07T14:32:02;14.50;94.90
36374;DHT22;22399;51.346;12.372;2023-05-07T14:34:31;14.70;94.60
36374;DHT22;22399;51.346;12.372;2023-05-07T14:37:01;14.80;94.30
36374;DHT22;22399;51.346;12.372;2023-05-07T14:39:29;14.60;94.50
36374;DHT22;22399;51.346;12.372;2023-05-07T14:41:57;14.70;94.50
36374;DHT22;22399;51.346;12.372;2023-05-07T14:44:26;14.70;94.50
36374;DHT22;22399;51.346;12.372;2023-05-07T14:46:54;14.80;94.20
36374;DHT22;22399;51.346;12.372;2023-05-07T14:49:28;14.80;93.90
36374;DHT22;22399;51.346;12.372;2023-05-07T14:51:57;14.70;94.00
36374;DHT22;22399;51.346;12.372;2023-05-07T14:54:26;14.70;93.90
36374;DHT22;22399;51.346;12.372;2023-05-07T14:56:55;14.60;94.30
36374;DHT22;22399;51.346;12.372;2023-05-07T14:59:23;14.70;94.50
36374;DHT22;22399;51.346;12.372;2023-05-07T15:01:51;14.70;94.30
36374;DHT22;22399;51.346;12.372;2023-05-07T15:04:20;14.70;94.10
36374;DHT22;22399;51.346;12.372;2023-05-07T15:06:48;14.80;93.90
36374;DHT22;22399;51.346;12.372;2023-05-07T15:09:16;14.80;93.60
36374;DHT22;22399;51.346;12.372;2023-05-07T15:11:46;14.60;93.30
36374;DHT22;22399;51.346;12.372;2023-05-07T15:14:14;14.70;93.30
36374;DHT22;22399;51.346;12.372;2023-05-07T15:16:42;14.50;93.60
36374;DHT22;22399;51.346;12.372;2023-05-07T15:19:11;14.40;93.50
36374;DHT22;22399;51.346;12.372;2023-05-07T15:21:41;14.30;93.60
36374;DHT22;22399;51.346;12.372;2023-05-07T15:24:09;14.30;93.60
36374;DHT22;22399;51.346;12.372;2023-05-07T15:26:39;14.30;93.60
36374;DHT22;22399;51.346;12.372;2023-05-07T15:29:09;14.40;93.40
36374;DHT22;22399;51.346;12.372;2023-05-07T15:31:37;14.30;93.30
36374;DHT22;22399;51.346;12.372;2023-05-07T15:34:06;14.30;93.20
36374;DHT22;22399;51.346;12.372;2023-05-07T15:36:34;14.20;93.20
36374;DHT22;22399;51.346;12.372;2023-05-07T15:39:02;14.00;93.60
36374;DHT22;22399;51.346;12.372;2023-05-07T15:41:31;14.00;94.00
36374;DHT22;22399;51.346;12.372;2023-05-07T15:43:59;14.00;93.60
36374;DHT22;22399;51.346;12.372;2023-05-07T15:46:29;14.10;93.50